Time;durP1;ratioP1;P1;durP2;ratioP2;P2;SDS_P1;SDS_P2;PMS_P1;PMS_P2;Temp;Humidity;BMP_temperature;BMP_pressure;BME280_temperature;BME280_humidity;BME280_pressure;Samples;Min_cycle;Max_cycle;Signal;HPM_P1;HPM_P2
2021/04/17 00:01:41;;;;;;;5.75;5.17;;;;;;;6.56;95.34;99570.19;1734198;82;21244;-65
2021/04/17 00:04:09;;;;;;;6.45;5.87;;;;;;;6.56;95.52;99567.52;1734089;82;21141;-65
2021/04/17 00:06:37;;;;;;;6.50;5.55;;;;;;;6.58;95.70;99572.61;1732401;82;21618;-66
2021/04/17 00:09:12;;;;;;;6.33;5.78;;;;;;;6.56;95.63;99564.84;1733205;82;21228;-65
2021/04/17 00:11:42;;;;;;;5.62;4.67;;;;;;;6.55;95.77;99570.41;1733205;82;21554;-65
2021/04/17 00:14:19;;;;;;;6.78;6.17;;;;;;;6.55;95.75;99567.22;1718916;82;21710;-65
2021/04/17 00:16:50;;;;;;;6.58;5.97;;;;;;;6.53;95.69;99575.15;1732308;82;21620;-67
2021/04/17 00:19:18;;;;;;;6.05;5.55;;;;;;;6.50;95.69;99571.61;1733284;82;21145;-66
2021/04/17 00:21:46;;;;;;;7.17;6.47;;;;;;;6.45;95.52;99572.80;1733336;82;22796;-63
2021/04/17 00:24:13;;;;;;;5.92;5.28;;;;;;;6.42;95.58;99576.75;1732903;82;21053;-69
2021/04/17 00:26:41;;;;;;;6.87;6.17;;;;;;;6.48;95.93;99569.15;1707536;82;21587;-62
2021/04/17 00:29:09;;;;;;;5.65;5.03;;;;;;;6.45;95.44;99573.62;1710104;82;21168;-62
2021/04/17 00:31:37;;;;;;;6.60;6.00;;;;;;;6.44;95.40;99577.33;1732176;82;21152;-63
2021/04/17 00:34:06;;;;;;;7.10;6.50;;;;;;;6.41;95.32;99577.78;1733545;82;22218;-64
2021/04/17 00:36:34;;;;;;;6.45;5.90;;;;;;;6.42;95.32;99579.94;1733398;82;21137;-65
2021/04/17 00:39:06;;;;;;;10.08;5.53;;;;;;;6.40;95.40;99587.35;1733572;82;21116;-64
2021/04/17 00:41:36;;;;;;;5.22;4.72;;;;;;;6.44;95.58;99584.52;1727352;82;21173;-65
2021/04/17 00:44:04;;;;;;;7.12;6.53;;;;;;;6.49;95.62;99586.81;1734061;82;21141;-69
2021/04/17 00:46:32;;;;;;;7.97;6.05;;;;;;;6.49;95.41;99588.67;1733528;82;21203;-67
2021/04/17 00:49:04;;;;;;;8.13;7.08;;;;;;;6.43;95.28;99591.72;1726708;82;21990;-68
2021/04/17 00:51:32;;;;;;;6.42;5.40;;;;;;;6.38;95.32;99586.78;1709969;82;21168;-67
2021/04/17 00:54:00;;;;;;;7.30;6.60;;;;;;;6.40;95.75;99592.18;1713258;82;21136;-68
2021/04/17 00:56:27;;;;;;;8.05;6.37;;;;;;;6.41;95.78;99595.67;1706828;84;21199;-68
2021/04/17 00:58:55;;;;;;;8.03;6.40;;;;;;;6.45;95.81;99589.65;1707005;82;21217;-65
2021/04/17 01:01:22;;;;;;;6.85;6.05;;;;;;;6.42;95.65;99591.96;1706958;82;22103;-66
2021/04/17 01:04:09;;;;;;;11.50;6.45;;;;;;;6.38;95.75;99592.91;1706840;84;21609;-65
2021/04/17 01:06:50;;;;;;;6.75;5.30;;;;;;;6.35;95.82;99586.69;1706150;84;21468;-68
2021/04/17 01:09:26;;;;;;;6.20;5.67;;;;;;;6.40;96.17;99592.18;1711220;82;21140;-64
2021/04/17 01:12:09;;;;;;;6.87;6.20;;;;;;;6.38;95.71;99594.24;1706883;84;21123;-67
2021/04/17 01:14:46;;;;;;;4.80;4.40;;;;;;;6.36;95.55;99593.67;1846091;76;28573;-65
2021/04/17 01:17:14;;;;;;;6.50;5.85;;;;;;;6.29;95.49;99597.45;1789524;79;21070;-64
2021/04/17 01:19:56;;;;;;;5.58;5.17;;;;;;;6.26;95.40;99599.24;1750370;82;21140;-65
2021/04/17 01:22:24;;;;;;;6.53;5.92;;;;;;;6.28;95.57;99603.34;1732281;82;20954;-64
2021/04/17 01:25:14;;;;;;;7.15;6.45;;;;;;;6.31;95.58;99602.05;1786452;79;20995;-62
2021/04/17 01:27:42;;;;;;;6.85;6.12;;;;;;;6.34;95.51;99601.59;1756806;80;21011;-64
2021/04/17 01:30:17;;;;;;;5.58;5.08;;;;;;;6.30;95.01;99605.25;1757919;80;21482;-64
2021/04/17 01:32:45;;;;;;;6.35;4.70;;;;;;;6.29;94.98;99600.94;1812104;77;21194;-63
2021/04/17 01:35:17;;;;;;;6.05;5.45;;;;;;;6.27;94.84;99608.89;1800767;79;21038;-63
2021/04/17 01:38:02;;;;;;;4.87;4.37;;;;;;;6.25;94.90;99609.62;1784901;80;20971;-64
2021/04/17 01:40:31;;;;;;;6.03;5.42;;;;;;;6.26;94.86;99612.08;1785003;80;21129;-64
2021/04/17 01:42:58;;;;;;;8.58;6.92;;;;;;;6.25;94.70;99612.30;1784935;80;21161;-61
2021/04/17 01:45:29;;;;;;;5.20;4.70;;;;;;;6.22;94.80;99608.75;1784998;80;21144;-62
2021/04/17 01:48:00;;;;;;;7.12;6.40;;;;;;;6.28;95.06;99613.20;1784920;80;21153;-64
2021/04/17 01:50:28;;;;;;;6.47;5.85;;;;;;;6.30;95.08;99611.10;1784853;80;21034;-64
2021/04/17 01:53:00;;;;;;;7.58;6.45;;;;;;;6.33;95.02;99616.02;1784998;80;21142;-65
2021/04/17 01:55:32;;;;;;;6.37;5.78;;;;;;;6.32;94.95;99619.72;1783023;80;21145;-63
2021/04/17 01:58:01;;;;;;;6.70;6.10;;;;;;;6.30;94.99;99613.77;1784494;80;21251;-69
2021/04/17 02:00:30;;;;;;;7.28;6.55;;;;;;;6.28;94.82;99619.87;1784426;80;21157;-68
2021/04/17 02:02:58;;;;;;;7.42;6.60;;;;;;;6.18;94.50;99613.72;1785105;80;21141;-63
2021/04/17 02:05:26;;;;;;;10.00;6.92;;;;;;;6.18;94.70;99620.40;1785684;80;21003;-63
2021/04/17 02:07:57;;;;;;;7.47;6.78;;;;;;;6.19;94.70;99625.23;1772852;80;21186;-64
2021/04/17 02:10:25;;;;;;;10.60;7.80;;;;;;;6.16;94.69;99618.45;1774871;80;21425;-63
2021/04/17 02:12:53;;;;;;;8.35;7.05;;;;;;;6.17;94.81;99625.44;1776427;80;22193;-65
2021/04/17 02:15:21;;;;;;;7.85;6.97;;;;;;;6.14;94.52;99629.86;1773246;80;21182;-64
2021/04/17 02:17:59;;;;;;;8.20;7.30;;;;;;;6.09;94.50;99627.08;1769788;80;21176;-66
2021/04/17 02:20:41;;;;;;;7.65;6.85;;;;;;;6.12;94.87;99633.30;1754234;81;21591;-64
2021/04/17 02:23:10;;;;;;;9.08;7.80;;;;;;;6.13;94.83;99622.92;1753641;81;21393;-65
2021/04/17 02:25:38;;;;;;;10.70;9.60;;;;;;;6.10;94.83;99624.68;1753872;81;21168;-65
2021/04/17 02:28:06;;;;;;;8.23;7.35;;;;;;;6.06;94.76;99631.50;1753773;81;21157;-64
2021/04/17 02:30:36;;;;;;;11.80;8.45;;;;;;;6.02;94.85;99631.14;1723827;83;21125;-65
2021/04/17 02:33:04;;;;;;;7.92;7.17;;;;;;;6.04;95.06;99633.59;1728779;81;22730;-64
2021/04/17 02:35:33;;;;;;;9.85;8.55;;;;;;;6.06;95.04;99636.84;1753850;80;22315;-65
2021/04/17 02:38:02;;;;;;;9.50;7.53;;;;;;;6.01;95.16;99642.03;1728509;81;21778;-63
2021/04/17 02:40:30;;;;;;;11.45;8.73;;;;;;;6.02;95.25;99641.00;1753849;81;21104;-63
2021/04/17 02:42:58;;;;;;;10.78;8.85;;;;;;;6.02;95.46;99640.48;1753609;81;21156;-64
2021/04/17 02:45:26;;;;;;;9.55;8.60;;;;;;;6.00;95.54;99649.22;1753854;81;21610;-65
2021/04/17 02:47:53;;;;;;;8.13;6.97;;;;;;;5.96;95.63;99653.38;1753904;81;21212;-64
2021/04/17 02:50:22;;;;;;;10.93;9.18;;;;;;;5.98;95.89;99651.31;1754124;81;21133;-63
2021/04/17 02:52:49;;;;;;;11.00;9.88;;;;;;;6.01;96.01;99657.53;1753984;81;21030;-63
2021/04/17 02:55:19;;;;;;;9.18;7.92;;;;;;;6.04;96.06;99656.30;1753490;81;22141;-64
2021/04/17 02:57:48;;;;;;;8.45;7.60;;;;;;;6.08;96.00;99658.81;1753662;81;21150;-65
2021/04/17 03:00:19;;;;;;;14.23;9.30;;;;;;;6.09;95.83;99660.45;1753832;81;22319;-63
2021/04/17 03:02:47;;;;;;;12.80;8.68;;;;;;;6.08;95.82;99660.14;1753556;81;21173;-64
2021/04/17 03:05:15;;;;;;;7.37;6.67;;;;;;;6.14;95.90;99664.06;1753624;81;21614;-64
2021/04/17 03:07:42;;;;;;;10.03;8.43;;;;;;;6.17;95.85;99668.67;1753363;81;22264;-65
2021/04/17 03:10:14;;;;;;;10.28;8.33;;;;;;;6.15;95.67;99671.56;1753779;81;21141;-66
2021/04/17 03:12:41;;;;;;;14.65;9.43;;;;;;;6.14;95.60;99676.08;1753747;81;21196;-64
2021/04/17 03:15:11;;;;;;;10.78;9.68;;;;;;;6.13;95.70;99677.66;1753710;80;21176;-64
2021/04/17 03:17:40;;;;;;;10.13;8.73;;;;;;;6.13;95.72;99681.66;1753525;81;21629;-64
2021/04/17 03:20:11;;;;;;;10.28;8.78;;;;;;;6.14;95.85;99685.42;1753890;81;21562;-64
2021/04/17 03:22:39;;;;;;;10.68;8.55;;;;;;;6.16;95.96;99686.55;1753793;81;21141;-63
2021/04/17 03:25:10;;;;;;;9.60;7.97;;;;;;;6.14;95.83;99696.62;1753776;81;21641;-64
2021/04/17 03:27:39;;;;;;;11.80;9.25;;;;;;;6.11;95.88;99690.40;1754407;81;21015;-63
2021/04/17 03:30:11;;;;;;;11.80;9.68;;;;;;;6.06;96.09;99685.72;1753971;81;21646;-64
2021/04/17 03:32:39;;;;;;;9.83;8.70;;;;;;;6.09;96.44;99689.82;1753891;81;21566;-63
2021/04/17 03:35:09;;;;;;;13.22;9.63;;;;;;;6.12;96.48;99700.05;1753781;81;21166;-62
2021/04/17 03:37:38;;;;;;;14.20;11.22;;;;;;;6.12;96.37;99698.71;1753362;81;21451;-62
2021/04/17 03:40:08;;;;;;;11.38;9.78;;;;;;;6.12;96.53;99697.38;1753719;81;21152;-63
2021/04/17 03:42:35;;;;;;;10.48;9.40;;;;;;;6.12;96.38;99708.05;1753699;81;21215;-64
2021/04/17 03:45:05;;;;;;;14.60;10.28;;;;;;;6.08;96.39;99702.86;1753812;81;21105;-64
2021/04/17 03:47:34;;;;;;;12.40;10.80;;;;;;;6.10;96.60;99706.11;1753920;81;21587;-63
2021/04/17 03:50:04;;;;;;;11.53;9.55;;;;;;;6.09;96.59;99715.97;1753727;81;21245;-61
2021/04/17 03:52:31;;;;;;;9.10;8.15;;;;;;;6.07;96.76;99710.05;1753387;81;21185;-64
2021/04/17 03:55:03;;;;;;;10.43;9.33;;;;;;;6.12;96.82;99713.40;1753718;81;21177;-64
2021/04/17 03:57:32;;;;;;;14.25;11.85;;;;;;;6.12;96.74;99717.40;1753665;81;21038;-64
2021/04/17 04:00:02;;;;;;;12.33;10.23;;;;;;;6.17;96.83;99726.09;1753643;81;21145;-63
2021/04/17 04:02:30;;;;;;;13.98;11.43;;;;;;;6.21;96.87;99720.08;1753782;81;21144;-62
2021/04/17 04:04:58;;;;;;;14.75;12.00;;;;;;;6.19;96.57;99728.03;1753714;81;21070;-63
2021/04/17 04:07:27;;;;;;;14.30;11.00;;;;;;;6.16;96.58;99729.78;1753940;81;21585;-62
2021/04/17 04:09:56;;;;;;;15.60;11.93;;;;;;;6.18;96.67;99735.22;1754444;81;21130;-65
2021/04/17 04:12:23;;;;;;;15.48;12.53;;;;;;;6.15;96.53;99736.98;1753763;81;20987;-65
2021/04/17 04:14:52;;;;;;;17.32;13.40;;;;;;;6.20;96.91;99737.65;1723654;81;21436;-63
2021/04/17 04:17:20;;;;;;;17.27;13.45;;;;;;;6.22;96.68;99738.26;1723833;83;21590;-64
2021/04/17 04:19:47;;;;;;;16.15;13.53;;;;;;;6.24;96.62;99750.86;1753005;81;21614;-63
2021/04/17 04:22:15;;;;;;;19.77;14.45;;;;;;;6.23;96.55;99743.39;1753640;81;21113;-64
2021/04/17 04:24:42;;;;;;;21.87;15.75;;;;;;;6.27;96.69;99751.77;1753690;81;21602;-61
2021/04/17 04:27:10;;;;;;;25.23;15.10;;;;;;;6.35;96.74;99749.63;1753769;81;23520;-62
2021/04/17 04:29:37;;;;;;;25.68;17.42;;;;;;;6.38;96.52;99748.38;1753415;81;21152;-62
2021/04/17 04:32:07;;;;;;;21.87;16.67;;;;;;;6.36;96.29;99753.11;1753782;81;21633;-63
2021/04/17 04:34:35;;;;;;;23.80;15.45;;;;;;;6.32;96.26;99754.08;1753664;80;21578;-63
2021/04/17 04:37:03;;;;;;;25.70;20.25;;;;;;;6.30;96.37;99752.66;1753386;81;21101;-63
2021/04/17 04:39:32;;;;;;;37.85;23.50;;;;;;;6.27;96.52;99755.27;1753781;81;22342;-64
2021/04/17 04:42:00;;;;;;;35.20;24.00;;;;;;;6.28;96.73;99756.91;1753606;81;21305;-64
2021/04/17 04:44:28;;;;;;;33.58;22.25;;;;;;;6.32;96.83;99762.61;1753666;81;21042;-63
2021/04/17 04:46:57;;;;;;;39.53;23.32;;;;;;;6.34;96.75;99761.86;1753767;81;21014;-62
2021/04/17 04:49:26;;;;;;;41.55;24.67;;;;;;;6.36;96.79;99761.12;1753857;81;21196;-63
2021/04/17 04:51:55;;;;;;;37.10;22.60;;;;;;;6.39;96.69;99766.02;1754174;81;21260;-63
2021/04/17 04:54:23;;;;;;;47.90;27.80;;;;;;;6.35;96.50;99767.50;1753561;81;21173;-65
2021/04/17 04:56:51;;;;;;;44.42;26.52;;;;;;;6.33;96.46;99770.38;1753660;81;21006;-63
2021/04/17 04:59:18;;;;;;;47.75;23.57;;;;;;;6.29;96.49;99759.84;1753638;81;21109;-64
2021/04/17 05:01:46;;;;;;;46.42;23.65;;;;;;;6.33;96.49;99774.94;1753767;81;21610;-64
2021/04/17 05:04:13;;;;;;;53.05;30.62;;;;;;;6.31;96.40;99771.14;1753723;81;21806;-62
2021/04/17 05:06:41;;;;;;;54.03;31.50;;;;;;;6.31;96.43;99775.15;1753655;81;21547;-64
2021/04/17 05:09:11;;;;;;;54.42;31.02;;;;;;;6.38;96.56;99781.23;1753752;81;21200;-64
2021/04/17 05:11:39;;;;;;;54.50;27.77;;;;;;;6.42;96.53;99778.44;1753613;81;21137;-64
2021/04/17 05:14:08;;;;;;;51.15;27.62;;;;;;;6.45;96.12;99787.34;1751646;80;21157;-62
2021/04/17 05:16:36;;;;;;;47.60;27.62;;;;;;;6.42;95.92;99785.12;1728928;82;21382;-62
2021/04/17 05:19:03;;;;;;;49.05;28.40;;;;;;;6.40;95.91;99783.17;1713187;82;21599;-62
2021/04/17 05:21:33;;;;;;;48.70;29.30;;;;;;;6.41;95.96;99782.14;1698265;84;21164;-65
2021/04/17 05:24:01;;;;;;;50.17;29.63;;;;;;;6.47;96.10;99775.92;1697953;84;21749;-61
2021/04/17 05:26:28;;;;;;;36.80;22.50;;;;;;;6.54;96.03;99785.19;1724654;83;21218;-63
2021/04/17 05:28:56;;;;;;;50.10;27.02;;;;;;;6.62;95.99;99777.42;1728986;82;22141;-65
2021/04/17 05:31:26;;;;;;;42.03;24.20;;;;;;;6.67;95.77;99781.55;1728692;82;21025;-65
2021/04/17 05:33:55;;;;;;;42.03;26.07;;;;;;;6.69;95.18;99785.65;1728982;83;21123;-62
2021/04/17 05:36:23;;;;;;;48.65;26.40;;;;;;;6.71;95.10;99783.59;1698827;84;21183;-64
2021/04/17 05:38:52;;;;;;;62.13;28.10;;;;;;;6.75;94.95;99782.61;1695812;84;21587;-63
2021/04/17 05:41:24;;;;;;;43.17;24.18;;;;;;;6.79;94.79;99787.29;1739723;82;21201;-62
2021/04/17 05:43:52;;;;;;;52.50;27.45;;;;;;;6.87;94.61;99786.98;1698102;84;21618;-63
2021/04/17 05:46:20;;;;;;;44.63;23.77;;;;;;;6.85;94.02;99797.62;1728767;83;21209;-63
2021/04/17 05:48:49;;;;;;;48.50;26.70;;;;;;;6.87;94.03;99798.19;1728611;82;21616;-66
2021/04/17 05:51:16;;;;;;;53.60;27.40;;;;;;;6.92;94.01;99804.51;1728853;83;21199;-66
2021/04/17 05:53:44;;;;;;;54.10;30.23;;;;;;;6.96;93.62;99807.55;1728891;83;21513;-65
2021/04/17 05:56:12;;;;;;;48.63;24.65;;;;;;;6.98;93.60;99802.80;1728918;82;21212;-62
2021/04/17 05:58:41;;;;;;;42.17;22.82;;;;;;;7.03;93.37;99804.80;1728941;83;21207;-63
2021/04/17 06:01:09;;;;;;;48.35;25.45;;;;;;;7.04;93.04;99805.92;1719159;83;21581;-62
2021/04/17 06:03:36;;;;;;;44.15;22.45;;;;;;;7.04;92.89;99807.78;1715933;83;21177;-61
2021/04/17 06:06:04;;;;;;;46.65;23.75;;;;;;;7.04;92.88;99807.27;1743926;82;21363;-61
2021/04/17 06:08:33;;;;;;;44.30;22.45;;;;;;;7.05;92.86;99811.55;1744043;82;21204;-62
2021/04/17 06:11:05;;;;;;;38.90;23.73;;;;;;;7.10;92.93;99815.70;1744119;82;21120;-62
2021/04/17 06:13:34;;;;;;;33.75;20.37;;;;;;;7.14;92.84;99818.77;1724050;82;21137;-62
2021/04/17 06:16:04;;;;;;;41.10;23.00;;;;;;;7.21;92.87;99823.50;1752325;80;21169;-61
2021/04/17 06:18:33;;;;;;;37.93;22.32;;;;;;;7.21;92.41;99819.49;1753709;81;22103;-65
2021/04/17 06:21:03;;;;;;;39.75;20.37;;;;;;;7.20;92.07;99824.02;1753636;81;21586;-63
2021/04/17 06:23:32;;;;;;;28.35;16.62;;;;;;;7.17;91.92;99831.17;1753787;81;21597;-61
2021/04/17 06:26:01;;;;;;;33.02;19.55;;;;;;;7.21;91.86;99828.34;1753516;81;21188;-62
2021/04/17 06:28:31;;;;;;;41.92;22.52;;;;;;;7.22;91.51;99828.64;1755800;80;21185;-62
2021/04/17 06:31:00;;;;;;;36.00;21.73;;;;;;;7.24;91.52;99831.89;1753756;81;23513;-62
2021/04/17 06:33:27;;;;;;;42.55;22.60;;;;;;;7.31;91.52;99838.51;1710079;83;21176;-63
2021/04/17 06:35:58;;;;;;;35.40;21.70;;;;;;;7.35;91.35;99841.02;1713295;83;21183;-63
2021/04/17 06:38:26;;;;;;;40.03;20.10;;;;;;;7.40;91.09;99843.84;1712960;83;21212;-62
2021/04/17 06:40:54;;;;;;;32.88;21.60;;;;;;;7.40;90.62;99842.50;1713351;83;21132;-63
2021/04/17 06:43:22;;;;;;;32.50;19.52;;;;;;;7.39;90.53;99840.86;1712561;83;21263;-62
2021/04/17 06:45:54;;;;;;;32.15;18.87;;;;;;;7.41;90.22;99848.98;1713100;83;21191;-64
2021/04/17 06:48:23;;;;;;;56.40;27.22;;;;;;;7.46;90.38;99849.64;1713194;83;21574;-61
2021/04/17 06:50:51;;;;;;;31.02;19.23;;;;;;;7.51;90.02;99847.63;1713253;83;21553;-61
2021/04/17 06:53:19;;;;;;;32.73;18.45;;;;;;;7.53;89.55;99853.58;1713308;83;21132;-63
2021/04/17 06:55:53;;;;;;;36.85;20.95;;;;;;;7.50;89.26;99856.17;1712900;83;21670;-64
2021/04/17 06:58:21;;;;;;;40.05;22.37;;;;;;;7.50;89.33;99866.05;1713281;83;21600;-62
2021/04/17 07:00:48;;;;;;;35.25;22.42;;;;;;;7.45;89.15;99863.53;1713101;83;21172;-64
2021/04/17 07:03:16;;;;;;;42.25;22.65;;;;;;;7.43;89.22;99871.52;1713158;83;21049;-63
2021/04/17 07:05:45;;;;;;;30.00;18.42;;;;;;;7.43;89.52;99871.52;1713271;83;21145;-64
2021/04/17 07:08:12;;;;;;;39.35;23.65;;;;;;;7.48;89.38;99877.00;1713185;83;22290;-65
2021/04/17 07:10:41;;;;;;;33.75;17.37;;;;;;;7.49;89.49;99877.80;1713086;83;21022;-63
2021/04/17 07:13:14;;;;;;;30.37;18.77;;;;;;;7.52;89.49;99879.52;1713107;83;21172;-63
2021/04/17 07:15:44;;;;;;;32.03;21.33;;;;;;;7.52;89.31;99879.52;1713486;82;21132;-67
2021/04/17 07:18:32;;;;;;;26.85;18.77;;;;;;;7.51;89.42;99881.89;1700641;83;21162;-64
2021/04/17 07:21:22;;;;;;;29.55;17.80;;;;;;;7.51;89.39;99875.72;1713472;83;21216;-63
2021/04/17 07:23:51;;;;;;;23.42;15.58;;;;;;;7.49;89.31;99877.80;1713352;83;21171;-62
2021/04/17 07:26:25;;;;;;;26.48;15.80;;;;;;;7.49;89.29;99885.30;1688912;83;21049;-63
2021/04/17 07:29:14;;;;;;;35.70;19.25;;;;;;;7.48;89.47;99886.37;1713554;83;21609;-61
2021/04/17 07:31:38;;;;;;;32.88;19.50;;;;;;;7.50;89.66;99888.80;1712976;82;21604;-63
2021/04/17 07:34:15;;;;;;;33.63;20.27;;;;;;;7.56;89.66;99891.41;1666308;83;21426;-62
2021/04/17 07:36:52;;;;;;;29.75;17.37;;;;;;;7.65;89.90;99888.72;1713113;83;21227;-61
2021/04/17 07:39:40;;;;;;;31.97;19.82;;;;;;;7.72;89.59;99900.69;1713598;83;21160;-63
2021/04/17 07:42:15;;;;;;;21.23;15.55;;;;;;;7.69;89.52;99892.56;1713576;83;21093;-62
2021/04/17 07:44:45;;;;;;;24.87;14.60;;;;;;;7.72;89.64;99900.69;1713545;83;21136;-63
2021/04/17 07:47:31;;;;;;;22.98;15.98;;;;;;;7.72;89.91;99903.36;1713455;83;21152;-63
2021/04/17 07:50:07;;;;;;;25.90;17.10;;;;;;;7.70;89.88;99906.25;1713378;83;21029;-63
2021/04/17 07:52:35;;;;;;;26.70;15.45;;;;;;;7.62;90.03;99901.73;1713437;83;21021;-65
2021/04/17 07:55:12;;;;;;;24.10;14.65;;;;;;;7.57;90.54;99901.08;1713344;83;20989;-63
2021/04/17 07:57:47;;;;;;;19.82;13.05;;;;;;;7.58;90.69;99900.01;1713469;83;21226;-62
2021/04/17 08:00:17;;;;;;;19.12;13.05;;;;;;;7.58;90.52;99902.69;1688648;83;22673;-66
2021/04/17 08:02:48;;;;;;;18.62;12.25;;;;;;;7.59;90.58;99912.88;1706180;83;21081;-61
2021/04/17 08:05:16;;;;;;;17.50;11.80;;;;;;;7.60;90.42;99902.47;1712989;83;21867;-64
2021/04/17 08:07:44;;;;;;;18.02;13.03;;;;;;;7.61;90.43;99903.59;1688325;83;21096;-62
2021/04/17 08:10:12;;;;;;;17.85;12.80;;;;;;;7.67;90.37;99905.89;1759369;81;21205;-63
2021/04/17 08:12:43;;;;;;;18.60;13.43;;;;;;;7.72;90.31;99896.67;1759247;81;21374;-64
2021/04/17 08:15:19;;;;;;;17.70;11.75;;;;;;;7.79;90.23;99901.40;1757986;80;21224;-62
2021/04/17 08:17:49;;;;;;;20.95;15.55;;;;;;;7.84;89.86;99901.54;1753716;81;21160;-63
2021/04/17 08:20:20;;;;;;;22.15;15.45;;;;;;;7.88;89.60;99903.53;1753694;81;21144;-63
2021/04/17 08:22:51;;;;;;;19.12;14.40;;;;;;;7.94;89.20;99901.81;1753147;81;21180;-64
2021/04/17 08:25:20;;;;;;;21.73;14.40;;;;;;;7.99;88.49;99900.61;1747090;81;22347;-63
2021/04/17 08:27:49;;;;;;;16.73;12.07;;;;;;;7.98;88.40;99900.83;1753344;81;21669;-64
2021/04/17 08:30:22;;;;;;;19.42;13.72;;;;;;;8.02;88.49;99902.00;1753528;81;21583;-64
2021/04/17 08:32:49;;;;;;;15.73;12.10;;;;;;;8.02;88.12;99908.17;1753314;81;21211;-64
2021/04/17 08:35:20;;;;;;;22.27;15.93;;;;;;;8.03;87.89;99905.80;1753678;81;21067;-62
2021/04/17 08:37:56;;;;;;;22.42;14.45;;;;;;;8.08;87.88;99908.62;1753568;81;21245;-63
2021/04/17 08:40:40;;;;;;;23.10;16.05;;;;;;;8.17;87.95;99905.08;1753341;81;21007;-62
2021/04/17 08:43:17;;;;;;;24.07;15.40;;;;;;;8.24;87.55;99903.95;1753523;81;20998;-64
2021/04/17 08:46:12;;;;;;;19.27;12.05;;;;;;;8.32;86.98;99908.19;1739817;81;21125;-63
2021/04/17 08:49:01;;;;;;;13.32;10.50;;;;;;;8.31;86.54;99908.70;1753604;81;21185;-64
2021/04/17 08:51:35;;;;;;;17.85;13.88;;;;;;;8.27;86.27;99912.05;1752457;81;21341;-66
2021/04/17 08:57:01;;;;;;;18.23;13.13;;;;;;;8.27;85.95;99907.50;1855352;76;28266;-62
2021/04/17 08:59:35;;;;;;;30.60;18.05;;;;;;;8.24;85.77;99913.85;1801420;78;21610;-63
2021/04/17 09:02:17;;;;;;;21.05;14.28;;;;;;;8.27;85.80;99908.02;1759785;80;22297;-64
2021/04/17 09:05:09;;;;;;;13.55;11.25;;;;;;;8.36;85.86;99912.55;1781623;80;21158;-64
2021/04/17 09:07:40;;;;;;;17.98;12.15;;;;;;;8.45;85.53;99915.19;1793655;78;21000;-62
2021/04/17 09:10:32;;;;;;;13.95;11.22;;;;;;;8.43;84.76;99907.41;1822372;78;21010;-61
2021/04/17 09:13:20;;;;;;;12.25;10.32;;;;;;;8.44;84.96;99911.69;1813174;78;21581;-61
2021/04/17 09:15:53;;;;;;;15.32;9.70;;;;;;;8.45;84.26;99903.95;1804703;79;21375;-61
2021/04/17 09:18:36;;;;;;;13.78;10.03;;;;;;;8.38;83.89;99906.45;1792888;78;21559;-61
2021/04/17 09:21:17;;;;;;;18.23;10.10;;;;;;;8.30;83.90;99909.75;1806959;78;21006;-62
2021/04/17 09:23:50;;;;;;;13.28;9.08;;;;;;;8.32;84.11;99908.19;1808953;78;21527;-62
2021/04/17 09:26:34;;;;;;;12.05;9.50;;;;;;;8.39;84.37;99912.12;1790174;80;21108;-62
2021/04/17 09:29:23;;;;;;;10.38;8.63;;;;;;;8.45;84.30;99905.81;1786400;78;21154;-63
2021/04/17 09:31:51;;;;;;;13.40;9.40;;;;;;;8.49;83.64;99911.03;1792110;78;21141;-63
2021/04/17 09:34:20;;;;;;;9.48;8.45;;;;;;;8.50;83.38;99908.62;1782578;78;21263;-66
2021/04/17 09:36:50;;;;;;;14.55;8.08;;;;;;;8.56;83.37;99907.70;1798726;79;21030;-67
2021/04/17 09:39:30;;;;;;;12.20;9.88;;;;;;;8.63;82.98;99909.77;1812163;79;21125;-67
2021/04/17 09:42:01;;;;;;;12.98;9.28;;;;;;;8.64;82.49;99910.86;1784395;78;20999;-67
2021/04/17 09:44:45;;;;;;;9.68;8.33;;;;;;;8.70;82.44;99911.28;1783068;79;21187;-66
2021/04/17 09:47:16;;;;;;;10.68;8.10;;;;;;;8.77;81.76;99914.38;1782712;80;21526;-65
2021/04/17 09:49:47;;;;;;;12.23;8.75;;;;;;;8.66;81.35;99915.99;1783989;79;20983;-65
2021/04/17 09:52:21;;;;;;;14.38;9.25;;;;;;;8.64;81.65;99919.42;1765257;80;21136;-67
2021/04/17 09:55:05;;;;;;;11.25;9.33;;;;;;;8.57;81.72;99915.52;1809302;78;22133;-65
2021/04/17 09:57:32;;;;;;;14.95;9.90;;;;;;;8.57;81.88;99921.41;1828008;78;21011;-66
2021/04/17 10:00:02;;;;;;;10.85;8.60;;;;;;;8.52;82.07;99918.08;1828328;78;21128;-68
2021/04/17 10:02:44;;;;;;;12.90;8.80;;;;;;;8.54;82.23;99918.65;1827825;78;21054;-67
2021/04/17 10:05:18;;;;;;;12.90;8.83;;;;;;;8.58;82.31;99926.55;1812908;78;21106;-68
2021/04/17 10:07:53;;;;;;;15.25;9.60;;;;;;;8.60;82.33;99927.64;1764849;80;21604;-67
2021/04/17 10:10:19;;;;;;;13.55;9.18;;;;;;;8.64;82.52;99927.46;1783716;80;21642;-66
2021/04/17 10:12:51;;;;;;;12.28;10.10;;;;;;;8.66;82.52;99932.91;1776439;80;21166;-65
2021/04/17 10:15:28;;;;;;;10.93;8.85;;;;;;;8.70;82.59;99936.75;1777207;80;21029;-65
2021/04/17 10:18:01;;;;;;;12.73;8.13;;;;;;;8.67;82.81;99941.77;1801131;78;21169;-68
2021/04/17 10:20:30;;;;;;;14.40;9.90;;;;;;;8.66;83.25;99942.81;1797834;78;21624;-65
2021/04/17 10:23:00;;;;;;;14.47;10.18;;;;;;;8.59;83.61;99941.56;1791496;78;21209;-63
2021/04/17 10:25:46;;;;;;;13.88;10.25;;;;;;;8.64;83.88;99941.69;1795110;80;21162;-64
2021/04/17 10:28:25;;;;;;;10.65;8.43;;;;;;;8.70;83.67;99945.31;1799617;77;21196;-62
2021/04/17 10:31:00;;;;;;;13.13;9.33;;;;;;;8.73;83.23;99947.52;1809286;78;21184;-66
2021/04/17 10:33:30;;;;;;;15.95;9.28;;;;;;;8.74;83.23;99947.82;1827779;78;22299;-64
2021/04/17 10:35:59;;;;;;;12.68;9.45;;;;;;;8.77;83.25;99947.37;1801676;78;21228;-66
2021/04/17 10:38:34;;;;;;;12.20;9.10;;;;;;;8.81;82.93;99955.77;1826773;78;21197;-68
2021/04/17 10:41:03;;;;;;;13.78;10.03;;;;;;;8.83;82.95;99953.66;1816161;78;21014;-65
2021/04/17 10:43:31;;;;;;;16.45;10.00;;;;;;;8.85;82.99;99957.75;1811243;78;21164;-65
2021/04/17 10:46:04;;;;;;;14.18;9.05;;;;;;;8.86;83.07;99955.89;1782991;80;21205;-68
2021/04/17 10:48:45;;;;;;;10.10;8.15;;;;;;;8.87;83.15;99961.03;1755496;80;21111;-69
2021/04/17 10:51:16;;;;;;;20.82;10.20;;;;;;;8.87;82.82;99958.35;1795173;80;21140;-70
2021/04/17 10:53:48;;;;;;;11.28;9.15;;;;;;;8.84;82.97;99960.66;1795148;80;21129;-67
2021/04/17 10:56:21;;;;;;;17.90;10.38;;;;;;;8.82;83.12;99958.23;1823252;78;21097;-67
2021/04/17 10:59:05;;;;;;;11.75;7.92;;;;;;;8.81;83.15;99967.31;1778436;78;21197;-69
2021/04/17 11:01:38;;;;;;;15.03;8.53;;;;;;;8.79;83.23;99965.38;1763526;81;21593;-67
2021/04/17 11:04:06;;;;;;;13.60;9.80;;;;;;;8.79;83.31;99969.92;1795179;80;21073;-62
2021/04/17 11:06:37;;;;;;;10.68;8.90;;;;;;;8.79;83.46;99968.05;1795716;78;21011;-67
2021/04/17 11:09:15;;;;;;;12.78;8.98;;;;;;;8.81;83.44;99978.05;1788222;80;21184;-63
2021/04/17 11:11:57;;;;;;;14.05;10.32;;;;;;;8.76;83.80;99980.59;1827671;78;22149;-67
2021/04/17 11:14:27;;;;;;;8.75;7.55;;;;;;;8.74;84.20;99975.45;1772885;80;21604;-68
2021/04/17 11:16:56;;;;;;;10.82;7.72;;;;;;;8.75;84.15;99982.46;1795353;78;21133;-65
2021/04/17 11:19:29;;;;;;;12.35;8.35;;;;;;;8.70;84.64;99984.20;1801457;78;21199;-64
2021/04/17 11:22:20;;;;;;;10.00;7.95;;;;;;;8.68;85.35;99993.02;1810343;78;21626;-65
2021/04/17 11:25:03;;;;;;;9.83;7.20;;;;;;;8.72;85.67;99984.27;1791499;80;21300;-64
2021/04/17 11:27:32;;;;;;;8.55;7.00;;;;;;;8.76;85.99;99995.34;1760108;81;21202;-60
2021/04/17 11:30:01;;;;;;;8.28;6.37;;;;;;;8.75;86.27;99998.55;1781080;78;21189;-62
2021/04/17 11:32:29;;;;;;;11.33;9.60;;;;;;;8.71;86.83;99992.54;1766609;80;21182;-66
2021/04/17 11:34:57;;;;;;;11.70;8.35;;;;;;;8.62;87.86;99999.28;1795138;80;21522;-65
2021/04/17 11:37:29;;;;;;;10.03;7.50;;;;;;;8.57;88.46;99991.93;1763666;81;22813;-66
2021/04/17 11:39:56;;;;;;;9.18;7.55;;;;;;;8.63;88.96;99995.02;1765112;80;21060;-65
2021/04/17 11:42:24;;;;;;;11.10;7.65;;;;;;;8.65;89.20;99990.77;1776261;79;21124;-68
2021/04/17 11:44:53;;;;;;;10.93;7.97;;;;;;;8.64;89.27;99991.81;1819974;78;21065;-69
2021/04/17 11:47:21;;;;;;;11.50;8.08;;;;;;;8.63;89.58;99990.20;1782802;80;21149;-67
2021/04/17 11:49:49;;;;;;;13.15;8.48;;;;;;;8.62;89.80;99987.22;1767848;79;21388;-67
2021/04/17 11:52:17;;;;;;;12.73;10.35;;;;;;;8.63;90.04;99986.17;1811440;78;21183;-67
2021/04/17 11:54:44;;;;;;;12.45;10.28;;;;;;;8.64;90.23;99992.63;1793004;78;21189;-68